sensor_id;sensor_type;location;lat;lon;timestamp;temperature;humidity
19007;DHT22;9636;47.382;8.480;2023-04-26T00:58:15;15.50;99.90
19007;DHT22;9636;47.382;8.480;2023-04-26T01:00:42;15.40;99.90
19007;DHT22;9636;47.382;8.480;2023-04-26T01:03:10;15.40;99.90
19007;DHT22;9636;47.382;8.480;2023-04-26T01:05:37;15.40;99.90
19007;DHT22;9636;47.382;8.480;2023-04-26T01:08:05;15.40;99.90
19007;DHT22;9636;47.382;8.480;2023-04-26T01:10:33;15.30;99.90
19007;DHT22;9636;47.382;8.480;2023-04-26T01:13:01;15.30;99.90
19007;DHT22;9636;47.382;8.480;2023-04-26T01:15:29;15.30;99.90
19007;DHT22;9636;47.382;8.480;2023-04-26T01:17:58;15.30;99.90
19007;DHT22;9636;47.382;8.480;2023-04-26T01:20:24;15.30;99.90
19007;DHT22;9636;47.382;8.480;2023-04-26T01:22:52;15.20;99.90
19007;DHT22;9636;47.382;8.480;2023-04-26T01:25:20;15.20;99.90
19007;DHT22;9636;47.382;8.480;2023-04-26T01:27:47;15.20;99.90
19007;DHT22;9636;47.382;8.480;2023-04-26T01:30:13;15.20;99.90
19007;DHT22;9636;47.382;8.480;2023-04-26T01:32:41;15.20;99.90
19007;DHT22;9636;47.382;8.480;2023-04-26T01:35:08;15.20;99.90
19007;DHT22;9636;47.382;8.480;2023-04-26T01:37:35;15.20;99.90
19007;DHT22;9636;47.382;8.480;2023-04-26T01:40:04;15.10;99.90
19007;DHT22;9636;47.382;8.480;2023-04-26T01:42:31;15.10;99.90
19007;DHT22;9636;47.382;8.480;2023-04-26T01:44:58;15.10;99.90
19007;DHT22;9636;47.382;8.480;2023-04-26T01:47:25;15.10;99.90
19007;DHT22;9636;47.382;8.480;2023-04-26T01:49:52;15.10;99.90
19007;DHT22;9636;47.382;8.480;2023-04-26T01:52:19;15.00;99.90
19007;DHT22;9636;47.382;8.480;2023-04-26T01:54:46;15.00;99.90
19007;DHT22;9636;47.382;8.480;2023-04-26T01:57:14;15.00;99.90
19007;DHT22;9636;47.382;8.480;2023-04-26T01:59:41;15.00;99.90
19007;DHT22;9636;47.382;8.480;2023-04-26T02:02:07;15.00;99.90
19007;DHT22;9636;47.382;8.480;2023-04-26T02:04:34;14.90;99.90
19007;DHT22;9636;47.382;8.480;2023-04-26T02:07:01;14.90;99.90
19007;DHT22;9636;47.382;8.480;2023-04-26T02:09:28;14.90;99.90
19007;DHT22;9636;47.382;8.480;2023-04-26T02:11:55;14.90;99.90
19007;DHT22;9636;47.382;8.480;2023-04-26T02:14:23;14.90;99.90
19007;DHT22;9636;47.382;8.480;2023-04-26T02:16:50;14.90;99.90
19007;DHT22;9636;47.382;8.480;2023-04-26T02:19:17;14.80;99.90
19007;DHT22;9636;47.382;8.480;2023-04-26T02:21:51;14.80;99.90
19007;DHT22;9636;47.382;8.480;2023-04-26T02:24:18;14.80;99.90
19007;DHT22;9636;47.382;8.480;2023-04-26T02:26:46;14.70;99.90
19007;DHT22;9636;47.382;8.480;2023-04-26T02:29:13;14.70;99.90
19007;DHT22;9636;47.382;8.480;2023-04-26T02:31:41;14.70;99.90
19007;DHT22;9636;47.382;8.480;2023-04-26T02:34:08;14.70;99.90
19007;DHT22;9636;47.382;8.480;2023-04-26T02:36:34;14.70;99.90
19007;DHT22;9636;47.382;8.480;2023-04-26T02:39:01;14.70;99.90
19007;DHT22;9636;47.382;8.480;2023-04-26T02:41:30;14.60;99.90
19007;DHT22;9636;47.382;8.480;2023-04-26T02:43:58;14.60;99.90
19007;DHT22;9636;47.382;8.480;2023-04-26T02:46:24;14.60;99.90
19007;DHT22;9636;47.382;8.480;2023-04-26T02:48:52;14.60;99.90
19007;DHT22;9636;47.382;8.480;2023-04-26T02:51:20;14.60;99.90
19007;DHT22;9636;47.382;8.480;2023-04-26T02:53:46;14.50;99.90
19007;DHT22;9636;47.382;8.480;2023-04-26T02:56:13;14.50;99.90
19007;DHT22;9636;47.382;8.480;2023-04-26T02:58:40;14.50;99.90
19007;DHT22;9636;47.382;8.480;2023-04-26T03:01:07;14.40;99.90
19007;DHT22;9636;47.382;8.480;2023-04-26T03:03:34;14.50;99.90
19007;DHT22;9636;47.382;8.480;2023-04-26T03:06:03;14.40;99.90
19007;DHT22;9636;47.382;8.480;2023-04-26T03:08:30;14.40;99.90
19007;DHT22;9636;47.382;8.480;2023-04-26T03:10:59;14.40;99.90
19007;DHT22;9636;47.382;8.480;2023-04-26T03:13:26;14.30;99.90
19007;DHT22;9636;47.382;8.480;2023-04-26T03:15:53;14.30;99.90
19007;DHT22;9636;47.382;8.480;2023-04-26T03:18:20;14.30;99.90
19007;DHT22;9636;47.382;8.480;2023-04-26T03:20:47;14.30;99.90
19007;DHT22;9636;47.382;8.480;2023-04-26T03:23:15;14.30;99.90
19007;DHT22;9636;47.382;8.480;2023-04-26T03:25:42;14.30;99.90
19007;DHT22;9636;47.382;8.480;2023-04-26T03:28:09;14.20;99.90
19007;DHT22;9636;47.382;8.480;2023-04-26T03:30:36;14.20;99.90
19007;DHT22;9636;47.382;8.480;2023-04-26T03:33:03;14.20;99.90
19007;DHT22;9636;47.382;8.480;2023-04-26T03:35:30;14.10;99.90
19007;DHT22;9636;47.382;8.480;2023-04-26T03:37:56;14.20;99.90
19007;DHT22;9636;47.382;8.480;2023-04-26T03:40:24;14.10;99.90
19007;DHT22;9636;47.382;8.480;2023-04-26T03:42:51;14.10;99.90
19007;DHT22;9636;47.382;8.480;2023-04-26T03:45:18;14.10;99.90
19007;DHT22;9636;47.382;8.480;2023-04-26T03:47:45;14.10;99.90
19007;DHT22;9636;47.382;8.480;2023-04-26T03:50:12;14.10;99.90
19007;DHT22;9636;47.382;8.480;2023-04-26T03:52:38;14.10;99.90
19007;DHT22;9636;47.382;8.480;2023-04-26T03:55:06;14.10;99.90
19007;DHT22;9636;47.382;8.480;2023-04-26T03:57:35;14.00;99.90
19007;DHT22;9636;47.382;8.480;2023-04-26T04:00:03;14.00;99.90
19007;DHT22;9636;47.382;8.480;2023-04-26T04:02:32;14.00;99.90
19007;DHT22;9636;47.382;8.480;2023-04-26T04:04:59;14.00;99.90
19007;DHT22;9636;47.382;8.480;2023-04-26T04:07:26;14.00;99.90
19007;DHT22;9636;47.382;8.480;2023-04-26T04:09:53;14.00;99.90
19007;DHT22;9636;47.382;8.480;2023-04-26T04:12:20;13.90;99.90
19007;DHT22;9636;47.382;8.480;2023-04-26T04:14:48;13.90;99.90
19007;DHT22;9636;47.382;8.480;2023-04-26T04:17:15;13.90;99.90
19007;DHT22;9636;47.382;8.480;2023-04-26T04:19:42;13.90;99.90
19007;DHT22;9636;47.382;8.480;2023-04-26T04:22:09;13.80;99.90
19007;DHT22;9636;47.382;8.480;2023-04-26T04:24:36;13.90;99.90
19007;DHT22;9636;47.382;8.480;2023-04-26T04:27:03;13.80;99.90
19007;DHT22;9636;47.382;8.480;2023-04-26T04:29:30;13.80;99.90
19007;DHT22;9636;47.382;8.480;2023-04-26T04:31:58;13.80;99.90
19007;DHT22;9636;47.382;8.480;2023-04-26T04:34:25;13.80;99.90
19007;DHT22;9636;47.382;8.480;2023-04-26T04:36:52;13.80;99.90
19007;DHT22;9636;47.382;8.480;2023-04-26T04:39:18;13.70;99.90
19007;DHT22;9636;47.382;8.480;2023-04-26T04:41:45;13.70;99.90
19007;DHT22;9636;47.382;8.480;2023-04-26T04:44:13;13.70;99.90
19007;DHT22;9636;47.382;8.480;2023-04-26T04:46:41;13.70;99.90
19007;DHT22;9636;47.382;8.480;2023-04-26T04:49:10;13.70;99.90
19007;DHT22;9636;47.382;8.480;2023-04-26T04:51:37;13.70;99.90
19007;DHT22;9636;47.382;8.480;2023-04-26T04:54:09;13.70;99.90
19007;DHT22;9636;47.382;8.480;2023-04-26T04:56:36;13.70;99.90
19007;DHT22;9636;47.382;8.480;2023-04-26T04:59:03;13.70;99.90
19007;DHT22;9636;47.382;8.480;2023-04-26T05:01:30;13.70;99.90
19007;DHT22;9636;47.382;8.480;2023-04-26T05:03:57;13.70;99.90
19007;DHT22;9636;47.382;8.480;2023-04-26T05:06:25;13.70;99.90
19007;DHT22;9636;47.382;8.480;2023-04-26T05:08:53;13.70;99.90
19007;DHT22;9636;47.382;8.480;2023-04-26T05:11:20;13.70;99.90
19007;DHT22;9636;47.382;8.480;2023-04-26T05:13:47;13.70;99.90
19007;DHT22;9636;47.382;8.480;2023-04-26T05:16:14;13.70;99.90
19007;DHT22;9636;47.382;8.480;2023-04-26T05:18:41;13.80;99.90
19007;DHT22;9636;47.382;8.480;2023-04-26T05:21:08;13.80;99.90
19007;DHT22;9636;47.382;8.480;2023-04-26T05:23:36;13.80;99.90
19007;DHT22;9636;47.382;8.480;2023-04-26T05:26:04;13.90;99.90
19007;DHT22;9636;47.382;8.480;2023-04-26T05:28:31;13.90;99.90
19007;DHT22;9636;47.382;8.480;2023-04-26T05:30:58;13.90;99.90
19007;DHT22;9636;47.382;8.480;2023-04-26T05:33:25;13.90;99.90
19007;DHT22;9636;47.382;8.480;2023-04-26T05:35:53;13.90;99.90
19007;DHT22;9636;47.382;8.480;2023-04-26T05:38:22;14.00;99.90
19007;DHT22;9636;47.382;8.480;2023-04-26T05:40:50;14.00;99.90
19007;DHT22;9636;47.382;8.480;2023-04-26T05:43:17;14.00;99.90
19007;DHT22;9636;47.382;8.480;2023-04-26T05:45:49;14.00;99.90
19007;DHT22;9636;47.382;8.480;2023-04-26T05:48:16;14.10;99.90
19007;DHT22;9636;47.382;8.480;2023-04-26T05:50:43;14.10;99.90
19007;DHT22;9636;47.382;8.480;2023-04-26T05:53:10;14.10;99.90
19007;DHT22;9636;47.382;8.480;2023-04-26T05:55:37;14.10;99.90
19007;DHT22;9636;47.382;8.480;2023-04-26T05:58:05;14.10;99.90
19007;DHT22;9636;47.382;8.480;2023-04-26T06:00:32;14.10;99.90
19007;DHT22;9636;47.382;8.480;2023-04-26T06:02:59;14.10;99.90
19007;DHT22;9636;47.382;8.480;2023-04-26T06:05:25;14.20;99.90
19007;DHT22;9636;47.382;8.480;2023-04-26T06:07:52;14.20;99.90
19007;DHT22;9636;47.382;8.480;2023-04-26T07:12:21;15.70;99.90
19007;DHT22;9636;47.382;8.480;2023-04-26T07:14:48;15.80;99.90
19007;DHT22;9636;47.382;8.480;2023-04-26T07:17:15;15.80;99.90
19007;DHT22;9636;47.382;8.480;2023-04-26T07:19:42;16.00;99.90
19007;DHT22;9636;47.382;8.480;2023-04-26T07:22:11;16.10;99.90
19007;DHT22;9636;47.382;8.480;2023-04-26T07:24:38;16.10;99.90
19007;DHT22;9636;47.382;8.480;2023-04-26T07:27:04;16.10;99.90
19007;DHT22;9636;47.382;8.480;2023-04-26T07:29:32;16.10;99.90
19007;DHT22;9636;47.382;8.480;2023-04-26T07:31:59;16.20;99.90
19007;DHT22;9636;47.382;8.480;2023-04-26T07:34:26;16.30;99.90
19007;DHT22;9636;47.382;8.480;2023-04-26T07:36:53;16.40;99.90
19007;DHT22;9636;47.382;8.480;2023-04-26T07:39:20;16.50;99.90
19007;DHT22;9636;47.382;8.480;2023-04-26T07:41:47;16.60;99.90
19007;DHT22;9636;47.382;8.480;2023-04-26T07:44:14;16.70;99.90
19007;DHT22;9636;47.382;8.480;2023-04-26T07:46:42;16.80;99.90
19007;DHT22;9636;47.382;8.480;2023-04-26T07:49:09;17.00;99.90
19007;DHT22;9636;47.382;8.480;2023-04-26T07:51:36;17.10;99.90
19007;DHT22;9636;47.382;8.480;2023-04-26T07:54:03;17.20;99.90
19007;DHT22;9636;47.382;8.480;2023-04-26T07:56:29;17.50;99.90
19007;DHT22;9636;47.382;8.480;2023-04-26T07:58:56;17.50;99.90
19007;DHT22;9636;47.382;8.480;2023-04-26T08:01:23;17.60;99.90
19007;DHT22;9636;47.382;8.480;2023-04-26T08:03:51;17.60;99.90
19007;DHT22;9636;47.382;8.480;2023-04-26T08:06:19;17.80;99.90
19007;DHT22;9636;47.382;8.480;2023-04-26T08:08:46;18.00;99.90
19007;DHT22;9636;47.382;8.480;2023-04-26T08:11:15;18.40;99.90
19007;DHT22;9636;47.382;8.480;2023-04-26T08:13:42;19.10;99.90
19007;DHT22;9636;47.382;8.480;2023-04-26T08:16:09;18.80;99.90
19007;DHT22;9636;47.382;8.480;2023-04-26T08:18:36;18.70;99.90
19007;DHT22;9636;47.382;8.480;2023-04-26T08:21:04;18.70;99.90
19007;DHT22;9636;47.382;8.480;2023-04-26T08:23:32;18.60;99.90
19007;DHT22;9636;47.382;8.480;2023-04-26T08:26:00;18.70;99.90
19007;DHT22;9636;47.382;8.480;2023-04-26T08:28:27;18.80;99.90
19007;DHT22;9636;47.382;8.480;2023-04-26T08:30:54;19.00;99.90
19007;DHT22;9636;47.382;8.480;2023-04-26T08:33:21;19.00;99.90
19007;DHT22;9636;47.382;8.480;2023-04-26T08:35:47;19.10;99.90
19007;DHT22;9636;47.382;8.480;2023-04-26T08:38:15;19.30;99.90
19007;DHT22;9636;47.382;8.480;2023-04-26T08:40:43;19.20;99.90
19007;DHT22;9636;47.382;8.480;2023-04-26T08:43:14;19.30;99.90
19007;DHT22;9636;47.382;8.480;2023-04-26T08:45:44;19.30;99.90
19007;DHT22;9636;47.382;8.480;2023-04-26T08:48:11;19.30;99.90
19007;DHT22;9636;47.382;8.480;2023-04-26T08:50:42;19.40;99.90
19007;DHT22;9636;47.382;8.480;2023-04-26T08:53:13;19.40;99.90
19007;DHT22;9636;47.382;8.480;2023-04-26T08:55:44;19.40;99.90
19007;DHT22;9636;47.382;8.480;2023-04-26T08:58:12;19.40;99.90
19007;DHT22;9636;47.382;8.480;2023-04-26T09:00:42;19.40;99.90
19007;DHT22;9636;47.382;8.480;2023-04-26T09:03:10;19.50;99.90
19007;DHT22;9636;47.382;8.480;2023-04-26T09:05:38;19.60;99.90
19007;DHT22;9636;47.382;8.480;2023-04-26T09:08:08;19.80;99.90
19007;DHT22;9636;47.382;8.480;2023-04-26T09:10:41;19.90;99.90
19007;DHT22;9636;47.382;8.480;2023-04-26T09:13:08;20.10;99.90
19007;DHT22;9636;47.382;8.480;2023-04-26T09:15:36;20.20;99.90
19007;DHT22;9636;47.382;8.480;2023-04-26T09:18:16;20.40;99.90
19007;DHT22;9636;47.382;8.480;2023-04-26T09:20:44;20.50;99.90
19007;DHT22;9636;47.382;8.480;2023-04-26T09:23:11;20.60;99.90
19007;DHT22;9636;47.382;8.480;2023-04-26T09:25:41;20.70;99.90
19007;DHT22;9636;47.382;8.480;2023-04-26T09:28:22;20.80;99.90
19007;DHT22;9636;47.382;8.480;2023-04-26T09:30:50;20.90;99.90
19007;DHT22;9636;47.382;8.480;2023-04-26T09:33:17;21.00;99.90
19007;DHT22;9636;47.382;8.480;2023-04-26T09:35:43;21.10;99.90
19007;DHT22;9636;47.382;8.480;2023-04-26T09:38:11;21.20;99.90
19007;DHT22;9636;47.382;8.480;2023-04-26T09:40:40;21.40;99.90
19007;DHT22;9636;47.382;8.480;2023-04-26T09:43:10;21.50;99.90
19007;DHT22;9636;47.382;8.480;2023-04-26T09:45:44;21.50;99.90
19007;DHT22;9636;47.382;8.480;2023-04-26T09:48:16;21.60;99.90
19007;DHT22;9636;47.382;8.480;2023-04-26T09:50:44;21.60;99.90
19007;DHT22;9636;47.382;8.480;2023-04-26T09:53:15;21.70;99.90
19007;DHT22;9636;47.382;8.480;2023-04-26T09:55:50;21.90;99.90
19007;DHT22;9636;47.382;8.480;2023-04-26T09:58:19;22.00;99.90
19007;DHT22;9636;47.382;8.480;2023-04-26T10:00:49;22.10;99.90
19007;DHT22;9636;47.382;8.480;2023-04-26T10:03:17;22.20;99.90
19007;DHT22;9636;47.382;8.480;2023-04-26T10:05:45;22.30;99.90
19007;DHT22;9636;47.382;8.480;2023-04-26T10:08:11;22.30;99.90
19007;DHT22;9636;47.382;8.480;2023-04-26T10:10:39;22.40;99.90
19007;DHT22;9636;47.382;8.480;2023-04-26T10:13:06;22.50;99.90
19007;DHT22;9636;47.382;8.480;2023-04-26T10:15:35;22.50;99.90
19007;DHT22;9636;47.382;8.480;2023-04-26T10:18:02;22.60;99.90
19007;DHT22;9636;47.382;8.480;2023-04-26T10:20:29;22.60;99.90
19007;DHT22;9636;47.382;8.480;2023-04-26T10:22:57;22.60;99.90
19007;DHT22;9636;47.382;8.480;2023-04-26T10:25:34;22.60;99.90
19007;DHT22;9636;47.382;8.480;2023-04-26T10:28:01;22.70;99.90
19007;DHT22;9636;47.382;8.480;2023-04-26T10:30:29;22.70;99.90
19007;DHT22;9636;47.382;8.480;2023-04-26T10:33:15;22.80;99.90
19007;DHT22;9636;47.382;8.480;2023-04-26T10:36:08;22.90;99.90
19007;DHT22;9636;47.382;8.480;2023-04-26T10:38:38;23.00;99.90
19007;DHT22;9636;47.382;8.480;2023-04-26T10:41:27;23.10;99.90
19007;DHT22;9636;47.382;8.480;2023-04-26T10:43:55;23.10;99.90
19007;DHT22;9636;47.382;8.480;2023-04-26T10:46:38;23.20;99.90
19007;DHT22;9636;47.382;8.480;2023-04-26T10:49:17;23.20;99.90
19007;DHT22;9636;47.382;8.480;2023-04-26T10:52:12;23.20;99.90
19007;DHT22;9636;47.382;8.480;2023-04-26T10:54:53;23.30;99.90
19007;DHT22;9636;47.382;8.480;2023-04-26T10:57:21;23.30;99.90
19007;DHT22;9636;47.382;8.480;2023-04-26T11:02:57;23.40;99.90
19007;DHT22;9636;47.382;8.480;2023-04-26T11:05:49;23.40;99.90
19007;DHT22;9636;47.382;8.480;2023-04-26T11:08:17;23.50;99.90
19007;DHT22;9636;47.382;8.480;2023-04-26T11:10:49;23.60;99.90
19007;DHT22;9636;47.382;8.480;2023-04-26T11:13:17;23.70;99.90
19007;DHT22;9636;47.382;8.480;2023-04-26T11:15:45;23.70;99.90
19007;DHT22;9636;47.382;8.480;2023-04-26T11:18:12;23.70;99.90
19007;DHT22;9636;47.382;8.480;2023-04-26T11:20:39;23.70;99.90
19007;DHT22;9636;47.382;8.480;2023-04-26T11:23:08;23.80;99.90
19007;DHT22;9636;47.382;8.480;2023-04-26T11:25:38;23.80;99.90
19007;DHT22;9636;47.382;8.480;2023-04-26T11:28:05;23.90;99.90
19007;DHT22;9636;47.382;8.480;2023-04-26T11:30:32;23.90;99.90
19007;DHT22;9636;47.382;8.480;2023-04-26T11:32:59;24.00;99.90
19007;DHT22;9636;47.382;8.480;2023-04-26T11:35:25;24.00;99.90
19007;DHT22;9636;47.382;8.480;2023-04-26T11:37:57;24.00;99.90
19007;DHT22;9636;47.382;8.480;2023-04-26T11:40:28;24.00;99.90
19007;DHT22;9636;47.382;8.480;2023-04-26T11:42:58;24.10;99.90
19007;DHT22;9636;47.382;8.480;2023-04-26T11:45:26;24.10;99.90
19007;DHT22;9636;47.382;8.480;2023-04-26T11:47:53;24.40;99.90
19007;DHT22;9636;47.382;8.480;2023-04-26T11:50:20;24.70;99.90
19007;DHT22;9636;47.382;8.480;2023-04-26T11:52:52;25.00;99.90
19007;DHT22;9636;47.382;8.480;2023-04-26T11:55:23;25.20;99.90
19007;DHT22;9636;47.382;8.480;2023-04-26T11:57:51;25.40;99.90
19007;DHT22;9636;47.382;8.480;2023-04-26T12:00:18;25.50;99.90
19007;DHT22;9636;47.382;8.480;2023-04-26T12:02:46;25.60;99.90
19007;DHT22;9636;47.382;8.480;2023-04-26T12:05:27;25.70;99.90
19007;DHT22;9636;47.382;8.480;2023-04-26T12:07:56;25.70;99.90
19007;DHT22;9636;47.382;8.480;2023-04-26T12:10:24;25.80;99.90
19007;DHT22;9636;47.382;8.480;2023-04-26T12:12:54;25.80;99.90
19007;DHT22;9636;47.382;8.480;2023-04-26T12:15:22;25.80;99.90
19007;DHT22;9636;47.382;8.480;2023-04-26T12:17:55;25.90;99.90
19007;DHT22;9636;47.382;8.480;2023-04-26T12:20:29;25.90;99.90
19007;DHT22;9636;47.382;8.480;2023-04-26T12:23:01;25.90;99.90
19007;DHT22;9636;47.382;8.480;2023-04-26T12:25:29;26.00;99.90
19007;DHT22;9636;47.382;8.480;2023-04-26T12:27:57;26.00;99.90
19007;DHT22;9636;47.382;8.480;2023-04-26T12:30:25;26.00;99.90
19007;DHT22;9636;47.382;8.480;2023-04-26T12:32:53;26.10;99.90
19007;DHT22;9636;47.382;8.480;2023-04-26T12:35:20;26.10;99.90
19007;DHT22;9636;47.382;8.480;2023-04-26T12:37:47;26.20;99.90
19007;DHT22;9636;47.382;8.480;2023-04-26T12:40:15;26.20;99.90
19007;DHT22;9636;47.382;8.480;2023-04-26T12:42:44;26.30;99.90
19007;DHT22;9636;47.382;8.480;2023-04-26T12:45:13;26.40;99.90
19007;DHT22;9636;47.382;8.480;2023-04-26T12:47:40;26.40;99.90
19007;DHT22;9636;47.382;8.480;2023-04-26T12:50:08;26.50;99.90
19007;DHT22;9636;47.382;8.480;2023-04-26T12:52:37;26.60;99.90
19007;DHT22;9636;47.382;8.480;2023-04-26T12:55:05;26.70;99.90
19007;DHT22;9636;47.382;8.480;2023-04-26T12:57:32;26.80;99.90
19007;DHT22;9636;47.382;8.480;2023-04-26T12:59:58;27.00;99.90
19007;DHT22;9636;47.382;8.480;2023-04-26T13:02:27;27.00;99.90
19007;DHT22;9636;47.382;8.480;2023-04-26T13:04:54;27.10;99.90
19007;DHT22;9636;47.382;8.480;2023-04-26T13:07:21;27.20;99.90
19007;DHT22;9636;47.382;8.480;2023-04-26T13:09:47;27.20;99.90
19007;DHT22;9636;47.382;8.480;2023-04-26T13:12:14;27.10;99.90
19007;DHT22;9636;47.382;8.480;2023-04-26T13:14:41;26.90;99.90
19007;DHT22;9636;47.382;8.480;2023-04-26T13:17:08;26.80;99.90
19007;DHT22;9636;47.382;8.480;2023-04-26T13:19:36;26.80;99.90
19007;DHT22;9636;47.382;8.480;2023-04-26T13:22:06;26.70;99.90
19007;DHT22;9636;47.382;8.480;2023-04-26T13:24:34;26.70;99.90
19007;DHT22;9636;47.382;8.480;2023-04-26T13:27:02;26.70;99.90
19007;DHT22;9636;47.382;8.480;2023-04-26T13:29:29;26.70;99.90
19007;DHT22;9636;47.382;8.480;2023-04-26T13:31:56;26.60;99.90
19007;DHT22;9636;47.382;8.480;2023-04-26T13:34:24;26.60;99.90
19007;DHT22;9636;47.382;8.480;2023-04-26T13:36:52;26.70;99.90
19007;DHT22;9636;47.382;8.480;2023-04-26T13:39:21;26.70;99.90
19007;DHT22;9636;47.382;8.480;2023-04-26T13:41:48;26.80;99.90
19007;DHT22;9636;47.382;8.480;2023-04-26T13:44:15;26.80;99.90
19007;DHT22;9636;47.382;8.480;2023-04-26T13:46:44;26.90;99.90
19007;DHT22;9636;47.382;8.480;2023-04-26T13:49:11;26.90;99.90
19007;DHT22;9636;47.382;8.480;2023-04-26T13:51:39;26.90;99.90
19007;DHT22;9636;47.382;8.480;2023-04-26T13:54:07;27.00;99.90
19007;DHT22;9636;47.382;8.480;2023-04-26T13:56:35;27.00;99.90
19007;DHT22;9636;47.382;8.480;2023-04-26T13:59:02;27.00;99.90
19007;DHT22;9636;47.382;8.480;2023-04-26T14:01:32;27.10;99.90
19007;DHT22;9636;47.382;8.480;2023-04-26T14:03:59;27.10;99.90
19007;DHT22;9636;47.382;8.480;2023-04-26T14:06:26;27.10;99.90
19007;DHT22;9636;47.382;8.480;2023-04-26T14:08:54;27.10;99.90
19007;DHT22;9636;47.382;8.480;2023-04-26T14:11:22;26.90;89.00
19007;DHT22;9636;47.382;8.480;2023-04-26T14:13:49;26.60;83.90
19007;DHT22;9636;47.382;8.480;2023-04-26T14:16:20;26.20;89.90
19007;DHT22;9636;47.382;8.480;2023-04-26T14:18:47;26.30;90.10
19007;DHT22;9636;47.382;8.480;2023-04-26T14:21:14;26.60;90.00
19007;DHT22;9636;47.382;8.480;2023-04-26T14:23:41;27.30;87.50
19007;DHT22;9636;47.382;8.480;2023-04-26T14:26:08;27.90;86.50
19007;DHT22;9636;47.382;8.480;2023-04-26T14:28:36;28.10;85.50
19007;DHT22;9636;47.382;8.480;2023-04-26T14:31:03;27.90;85.60
19007;DHT22;9636;47.382;8.480;2023-04-26T14:33:30;27.40;86.90
19007;DHT22;9636;47.382;8.480;2023-04-26T14:35:56;27.10;87.50
19007;DHT22;9636;47.382;8.480;2023-04-26T14:38:23;26.80;88.30
19007;DHT22;9636;47.382;8.480;2023-04-26T14:40:51;26.70;88.70
19007;DHT22;9636;47.382;8.480;2023-04-26T14:43:17;26.50;89.00
19007;DHT22;9636;47.382;8.480;2023-04-26T14:45:45;26.40;89.60
19007;DHT22;9636;47.382;8.480;2023-04-26T14:48:12;26.30;90.00
19007;DHT22;9636;47.382;8.480;2023-04-26T14:50:39;26.20;90.00
19007;DHT22;9636;47.382;8.480;2023-04-26T14:53:06;26.10;90.20
19007;DHT22;9636;47.382;8.480;2023-04-26T14:55:34;25.90;90.10
19007;DHT22;9636;47.382;8.480;2023-04-26T14:58:01;25.80;90.30
19007;DHT22;9636;47.382;8.480;2023-04-26T15:00:28;25.80;90.30
19007;DHT22;9636;47.382;8.480;2023-04-26T15:02:57;25.80;90.40
19007;DHT22;9636;47.382;8.480;2023-04-26T15:05:24;25.70;90.40
19007;DHT22;9636;47.382;8.480;2023-04-26T15:07:51;25.70;90.60
19007;DHT22;9636;47.382;8.480;2023-04-26T15:10:18;25.60;90.90
19007;DHT22;9636;47.382;8.480;2023-04-26T15:12:44;25.60;90.70
19007;DHT22;9636;47.382;8.480;2023-04-26T15:15:11;25.50;90.80
19007;DHT22;9636;47.382;8.480;2023-04-26T15:17:38;25.50;90.80
19007;DHT22;9636;47.382;8.480;2023-04-26T15:20:07;25.50;90.80
19007;DHT22;9636;47.382;8.480;2023-04-26T15:22:34;25.50;90.60
19007;DHT22;9636;47.382;8.480;2023-04-26T15:25:02;25.60;90.60
19007;DHT22;9636;47.382;8.480;2023-04-26T15:27:28;25.40;90.80
19007;DHT22;9636;47.382;8.480;2023-04-26T15:29:55;25.30;91.00
19007;DHT22;9636;47.382;8.480;2023-04-26T15:32:23;25.30;91.10
19007;DHT22;9636;47.382;8.480;2023-04-26T15:34:50;25.30;91.10
19007;DHT22;9636;47.382;8.480;2023-04-26T15:37:18;25.20;91.30
19007;DHT22;9636;47.382;8.480;2023-04-26T15:39:45;25.20;91.30
19007;DHT22;9636;47.382;8.480;2023-04-26T15:42:12;25.20;91.20
19007;DHT22;9636;47.382;8.480;2023-04-26T15:44:39;25.20;91.40
19007;DHT22;9636;47.382;8.480;2023-04-26T15:47:05;25.10;91.50
19007;DHT22;9636;47.382;8.480;2023-04-26T15:49:32;25.10;91.50
19007;DHT22;9636;47.382;8.480;2023-04-26T15:51:59;25.10;91.60
19007;DHT22;9636;47.382;8.480;2023-04-26T15:54:27;25.00;91.70
19007;DHT22;9636;47.382;8.480;2023-04-26T15:56:54;25.00;91.60
19007;DHT22;9636;47.382;8.480;2023-04-26T15:59:21;25.00;91.60
19007;DHT22;9636;47.382;8.480;2023-04-26T16:01:47;25.00;91.80
19007;DHT22;9636;47.382;8.480;2023-04-26T16:04:14;24.90;91.80
19007;DHT22;9636;47.382;8.480;2023-04-26T16:06:41;24.90;91.80
19007;DHT22;9636;47.382;8.480;2023-04-26T16:09:08;25.00;91.80
19007;DHT22;9636;47.382;8.480;2023-04-26T16:11:43;25.00;91.40
19007;DHT22;9636;47.382;8.480;2023-04-26T16:14:10;25.00;91.90
19007;DHT22;9636;47.382;8.480;2023-04-26T16:16:38;25.00;91.60
19007;DHT22;9636;47.382;8.480;2023-04-26T16:19:05;25.00;91.70
19007;DHT22;9636;47.382;8.480;2023-04-26T16:21:32;25.00;92.10
19007;DHT22;9636;47.382;8.480;2023-04-26T16:23:59;25.00;92.00
19007;DHT22;9636;47.382;8.480;2023-04-26T16:26:26;24.90;91.90
19007;DHT22;9636;47.382;8.480;2023-04-26T16:28:54;24.90;92.30
19007;DHT22;9636;47.382;8.480;2023-04-26T16:31:21;24.90;91.90
19007;DHT22;9636;47.382;8.480;2023-04-26T16:33:48;24.80;91.80
19007;DHT22;9636;47.382;8.480;2023-04-26T16:36:15;24.80;91.80
19007;DHT22;9636;47.382;8.480;2023-04-26T16:38:42;24.80;92.10
19007;DHT22;9636;47.382;8.480;2023-04-26T16:41:09;24.70;92.30
19007;DHT22;9636;47.382;8.480;2023-04-26T16:43:36;24.50;85.40
19007;DHT22;9636;47.382;8.480;2023-04-26T16:46:05;24.20;87.20
19007;DHT22;9636;47.382;8.480;2023-04-26T16:48:33;24.40;89.20
19007;DHT22;9636;47.382;8.480;2023-04-26T16:51:00;24.40;90.50
19007;DHT22;9636;47.382;8.480;2023-04-26T16:53:28;24.40;91.20
19007;DHT22;9636;47.382;8.480;2023-04-26T16:55:55;24.40;91.50
19007;DHT22;9636;47.382;8.480;2023-04-26T16:58:22;24.40;91.90
19007;DHT22;9636;47.382;8.480;2023-04-26T17:00:49;24.40;92.10
19007;DHT22;9636;47.382;8.480;2023-04-26T17:03:17;24.40;92.40
19007;DHT22;9636;47.382;8.480;2023-04-26T17:05:45;24.30;92.70
19007;DHT22;9636;47.382;8.480;2023-04-26T17:08:12;24.30;93.00
19007;DHT22;9636;47.382;8.480;2023-04-26T17:10:39;24.20;93.20
19007;DHT22;9636;47.382;8.480;2023-04-26T17:13:06;24.20;93.40
19007;DHT22;9636;47.382;8.480;2023-04-26T17:15:33;24.20;93.60
19007;DHT22;9636;47.382;8.480;2023-04-26T17:18:01;24.10;92.90
19007;DHT22;9636;47.382;8.480;2023-04-26T17:20:30;24.20;91.20
19007;DHT22;9636;47.382;8.480;2023-04-26T17:22:57;24.10;91.00
19007;DHT22;9636;47.382;8.480;2023-04-26T17:25:24;24.10;91.20
19007;DHT22;9636;47.382;8.480;2023-04-26T17:27:51;24.00;91.70
19007;DHT22;9636;47.382;8.480;2023-04-26T17:30:18;23.90;91.80
19007;DHT22;9636;47.382;8.480;2023-04-26T17:32:45;23.90;91.80
19007;DHT22;9636;47.382;8.480;2023-04-26T17:35:12;23.80;91.70
19007;DHT22;9636;47.382;8.480;2023-04-26T17:37:40;23.80;91.80
19007;DHT22;9636;47.382;8.480;2023-04-26T17:40:08;23.60;91.90
19007;DHT22;9636;47.382;8.480;2023-04-26T17:42:35;23.60;92.20
19007;DHT22;9636;47.382;8.480;2023-04-26T17:45:02;23.50;92.90
19007;DHT22;9636;47.382;8.480;2023-04-26T17:47:29;23.50;92.80
19007;DHT22;9636;47.382;8.480;2023-04-26T17:49:57;23.40;93.00
19007;DHT22;9636;47.382;8.480;2023-04-26T17:52:23;23.30;93.40